Red River Express — WDF9426 — position and weather

sailwx.info

Track history (hours):
 
Tides and Currents Weather Stations Pressure Air Temp Water Temp Dewpoint Dewpoint Depression Visibility Wind Speed Wind Dir Waves Ship Positions

Red River Express

Owner: Genesis Marine, LLC, Houston, TX. More information available from US FCC via Universal Licensing System and Coast Guard Vessel Documentation Center.

Last reported at 2017-Sep-22 02:00 UTC. Time now 2017-Sep-23 03:55 UTC.
Position N 30°02' W 093°15'.

Length 26 m; draft 3 m.

Type: Other ship. MMSI: 367505040.

Date/timePositionNaut miles runAvg speedWind from/ knotsBaromVisibWave heightAir tempDewpointWater temp
2017-Sep-22 02:00N 30°02' W 093°15'3 5.6
2017-Sep-22 01:30N 30°05' W 093°17'2 3.8
2017-Sep-22 01:01N 30°06' W 093°18'2 3.2
2017-Sep-22 00:30N 30°05' W 093°20'2 4.3
2017-Sep-22 00:01N 30°04' W 093°22'3 5.6
2017-Sep-21 23:31N 30°04' W 093°25'3 6.2
2017-Sep-21 23:00N 30°04' W 093°28'3 6.2
2017-Sep-21 22:30N 30°04' W 093°32'78 4.8
2017-Sep-21 06:19N 29°32' W 094°53'2 8.0
2017-Sep-21 06:00N 29°34' W 094°55'4 8.9
2017-Sep-21 05:30N 29°37' W 094°58'5 9.5
2017-Sep-21 05:00N 29°42' W 094°60'4 7.1
2017-Sep-21 04:30N 29°44' W 095°03'3 2.5
2017-Sep-21 03:23N 29°45' W 095°06'0 0.0
2017-Sep-21 03:00N 29°45' W 095°06'0 0.0
2017-Sep-21 02:31N 29°45' W 095°06'0 0.0
2017-Sep-21 02:00N 29°45' W 095°06'0 0.0
2017-Sep-21 01:30N 29°45' W 095°06'0 0.0
2017-Sep-21 00:59N 29°45' W 095°06'0 0.0
2017-Sep-21 00:30N 29°45' W 095°06'0 0.0
2017-Sep-21 00:00N 29°45' W 095°06'0 0.0
2017-Sep-20 23:30N 29°45' W 095°06'0 0.0
2017-Sep-20 22:54N 29°45' W 095°06'0 0.0
2017-Sep-20 22:30N 29°45' W 095°06'0 0.0
2017-Sep-20 22:00N 29°45' W 095°06'0 0.0
2017-Sep-20 21:30N 29°45' W 095°06'0 0.0
2017-Sep-20 21:00N 29°45' W 095°06'0 0.0
2017-Sep-20 20:30N 29°45' W 095°06'0 0.0
2017-Sep-20 20:01N 29°45' W 095°06'0 0.0
2017-Sep-20 19:30N 29°45' W 095°06'0 0.0
2017-Sep-20 19:01N 29°45' W 095°06'0 0.0
2017-Sep-20 18:30N 29°45' W 095°06'0 0.0
2017-Sep-20 17:59N 29°45' W 095°06'0 0.0
2017-Sep-20 16:18N 29°45' W 095°06'0 0.0
2017-Sep-20 15:51N 29°45' W 095°06'0 0.0
2017-Sep-20 15:29N 29°45' W 095°06'0 0.0
2017-Sep-20 14:53N 29°45' W 095°06'0 0.0
2017-Sep-20 13:33N 29°45' W 095°06'0 0.0
2017-Sep-20 13:21N 29°45' W 095°06'0 0.0
2017-Sep-20 12:59N 29°45' W 095°06'0 0.0
2017-Sep-20 10:37N 29°45' W 095°06'0 1.7
2017-Sep-20 10:29N 29°45' W 095°06'1 2.0
2017-Sep-20 09:45N 29°46' W 095°05'0 0.0
2017-Sep-20 09:19N 29°46' W 095°05'0 0.0
2017-Sep-20 08:58N 29°46' W 095°05'0 0.0
2017-Sep-19 19:28N 29°46' W 095°05'0 0.0
2017-Sep-19 09:51N 29°46' W 095°05'1 0.0
2017-Sep-18 07:12N 29°45' W 095°06'1 5.1
2017-Sep-18 07:00N 29°46' W 095°05'1 0.0
2017-Sep-17 01:14N 29°46' W 095°06'1 4.7
2017-Sep-17 00:57N 29°47' W 095°05'2 0.6
2017-Sep-16 22:30N 29°45' W 095°04'4 6.8
2017-Sep-16 21:56N 29°42' W 095°01'3 6.7
2017-Sep-16 21:31N 29°41' W 094°59'4 7.6
2017-Sep-16 21:00N 29°37' W 094°57'4 7.7
2017-Sep-16 20:30N 29°34' W 094°55'4 7.6
2017-Sep-16 20:00N 29°30' W 094°52'79 5.1
2017-Sep-16 04:35N 30°04' W 093°30'1 5.1
2017-Sep-16 04:20N 30°04' W 093°28'2 4.9
2017-Sep-16 04:00N 30°04' W 093°26'2 4.9
2017-Sep-16 03:30N 30°04' W 093°24'2 4.3
2017-Sep-16 03:00N 30°04' W 093°21'1 2.9
2017-Sep-16 02:30N 30°05' W 093°20'2 3.8
2017-Sep-16 02:00N 30°06' W 093°18'3 5.3
2017-Sep-16 01:28N 30°04' W 093°16'2 4.8
2017-Sep-16 01:00N 30°02' W 093°15'3 5.1
2017-Sep-16 00:31N 29°60' W 093°13'3 5.9
2017-Sep-16 00:01N 29°58' W 093°11'2 4.5
2017-Sep-15 23:31N 29°56' W 093°09'2 4.4
2017-Sep-15 23:00N 29°56' W 093°06'  
Track history (hours):
 
Tides and Currents Weather Stations Pressure Air Temp Water Temp Dewpoint Dewpoint Depression Visibility Wind Speed Wind Dir Waves Ship Positions

Red River Express

Owner: Genesis Marine, LLC, Houston, TX. More information available from US FCC via Universal Licensing System and Coast Guard Vessel Documentation Center.

Last reported at 2017-Sep-22 02:00 UTC. Time now 2017-Sep-23 03:55 UTC.
Position N 30°02' W 093°15'.

Length 26 m; draft 3 m.

Type: Other ship. MMSI: 367505040.

Date/timePositionNaut miles runAvg speedWind from/ knotsBaromVisibWave heightAir tempDewpointWater temp
2017-Sep-22 02:00N 30°02' W 093°15'3 5.6
2017-Sep-22 01:30N 30°05' W 093°17'2 3.8
2017-Sep-22 01:01N 30°06' W 093°18'2 3.2
2017-Sep-22 00:30N 30°05' W 093°20'2 4.3
2017-Sep-22 00:01N 30°04' W 093°22'3 5.6
2017-Sep-21 23:31N 30°04' W 093°25'3 6.2
2017-Sep-21 23:00N 30°04' W 093°28'3 6.2
2017-Sep-21 22:30N 30°04' W 093°32'78 4.8
2017-Sep-21 06:19N 29°32' W 094°53'2 8.0
2017-Sep-21 06:00N 29°34' W 094°55'4 8.9
2017-Sep-21 05:30N 29°37' W 094°58'5 9.5
2017-Sep-21 05:00N 29°42' W 094°60'4 7.1
2017-Sep-21 04:30N 29°44' W 095°03'3 2.5
2017-Sep-21 03:23N 29°45' W 095°06'0 0.0
2017-Sep-21 03:00N 29°45' W 095°06'0 0.0
2017-Sep-21 02:31N 29°45' W 095°06'0 0.0
2017-Sep-21 02:00N 29°45' W 095°06'0 0.0
2017-Sep-21 01:30N 29°45' W 095°06'0 0.0
2017-Sep-21 00:59N 29°45' W 095°06'0 0.0
2017-Sep-21 00:30N 29°45' W 095°06'0 0.0
2017-Sep-21 00:00N 29°45' W 095°06'0 0.0
2017-Sep-20 23:30N 29°45' W 095°06'0 0.0
2017-Sep-20 22:54N 29°45' W 095°06'0 0.0
2017-Sep-20 22:30N 29°45' W 095°06'0 0.0
2017-Sep-20 22:00N 29°45' W 095°06'0 0.0
2017-Sep-20 21:30N 29°45' W 095°06'0 0.0
2017-Sep-20 21:00N 29°45' W 095°06'0 0.0
2017-Sep-20 20:30N 29°45' W 095°06'0 0.0
2017-Sep-20 20:01N 29°45' W 095°06'0 0.0
2017-Sep-20 19:30N 29°45' W 095°06'0 0.0
2017-Sep-20 19:01N 29°45' W 095°06'0 0.0
2017-Sep-20 18:30N 29°45' W 095°06'0 0.0
2017-Sep-20 17:59N 29°45' W 095°06'0 0.0
2017-Sep-20 16:18N 29°45' W 095°06'0 0.0
2017-Sep-20 15:51N 29°45' W 095°06'0 0.0
2017-Sep-20 15:29N 29°45' W 095°06'0 0.0
2017-Sep-20 14:53N 29°45' W 095°06'0 0.0
2017-Sep-20 13:33N 29°45' W 095°06'0 0.0
2017-Sep-20 13:21N 29°45' W 095°06'0 0.0
2017-Sep-20 12:59N 29°45' W 095°06'0 0.0
2017-Sep-20 10:37N 29°45' W 095°06'0 1.7
2017-Sep-20 10:29N 29°45' W 095°06'1 2.0
2017-Sep-20 09:45N 29°46' W 095°05'0 0.0
2017-Sep-20 09:19N 29°46' W 095°05'0 0.0
2017-Sep-20 08:58N 29°46' W 095°05'0 0.0
2017-Sep-19 19:28N 29°46' W 095°05'0 0.0
2017-Sep-19 09:51N 29°46' W 095°05'1 0.0
2017-Sep-18 07:12N 29°45' W 095°06'1 5.1
2017-Sep-18 07:00N 29°46' W 095°05'1 0.0
2017-Sep-17 01:14N 29°46' W 095°06'1 4.7
2017-Sep-17 00:57N 29°47' W 095°05'2 0.6
2017-Sep-16 22:30N 29°45' W 095°04'4 6.8
2017-Sep-16 21:56N 29°42' W 095°01'3 6.7
2017-Sep-16 21:31N 29°41' W 094°59'4 7.6
2017-Sep-16 21:00N 29°37' W 094°57'4 7.7
2017-Sep-16 20:30N 29°34' W 094°55'4 7.6
2017-Sep-16 20:00N 29°30' W 094°52'79 5.1
2017-Sep-16 04:35N 30°04' W 093°30'1 5.1
2017-Sep-16 04:20N 30°04' W 093°28'2 4.9
2017-Sep-16 04:00N 30°04' W 093°26'2 4.9
2017-Sep-16 03:30N 30°04' W 093°24'2 4.3
2017-Sep-16 03:00N 30°04' W 093°21'1 2.9
2017-Sep-16 02:30N 30°05' W 093°20'2 3.8
2017-Sep-16 02:00N 30°06' W 093°18'3 5.3
2017-Sep-16 01:28N 30°04' W 093°16'2 4.8
2017-Sep-16 01:00N 30°02' W 093°15'3 5.1
2017-Sep-16 00:31N 29°60' W 093°13'3 5.9
2017-Sep-16 00:01N 29°58' W 093°11'2 4.5
2017-Sep-15 23:31N 29°56' W 093°09'2 4.4
2017-Sep-15 23:00N 29°56' W 093°06'  

Dump ship's entire track history